createdAt,value
2018-11-10T00:00:21.221Z,20.85
2018-11-10T00:02:50.026Z,22.60
2018-11-10T00:05:19.107Z,22.00
2018-11-10T00:07:47.322Z,21.00
2018-11-10T00:10:15.973Z,22.20
2018-11-10T00:12:44.313Z,22.60
2018-11-10T00:15:13.549Z,22.90
2018-11-10T00:17:42.183Z,21.00
2018-11-10T00:20:10.817Z,21.95
2018-11-10T00:22:40.133Z,22.37
2018-11-10T00:25:09.722Z,22.70
2018-11-10T00:27:37.906Z,24.25
2018-11-10T00:30:07.645Z,22.15
2018-11-10T00:32:35.869Z,21.65
2018-11-10T00:35:04.238Z,23.00
2018-11-10T00:37:32.431Z,23.52
2018-11-10T00:40:00.814Z,23.50
2018-11-10T00:42:29.081Z,23.05
2018-11-10T00:44:57.245Z,22.98
2018-11-10T00:47:25.433Z,21.48
2018-11-10T00:49:53.611Z,23.40
2018-11-10T00:52:21.799Z,23.77
2018-11-10T00:54:50.190Z,23.67
2018-11-10T00:57:18.395Z,24.07
2018-11-10T00:59:46.573Z,25.52
2018-11-10T01:02:14.761Z,25.20
2018-11-10T01:04:43.051Z,23.38
2018-11-10T01:07:11.253Z,22.73
2018-11-10T01:09:39.422Z,22.62
2018-11-10T01:12:07.633Z,25.00
2018-11-10T01:14:36.094Z,24.60
2018-11-10T01:17:04.305Z,24.05
2018-11-10T01:19:33.145Z,24.92
2018-11-10T01:22:01.402Z,21.85
2018-11-10T01:24:29.569Z,23.60
2018-11-10T01:26:57.754Z,21.97
2018-11-10T01:29:25.918Z,22.73
2018-11-10T01:31:54.125Z,22.55
2018-11-10T01:34:22.297Z,25.00
2018-11-10T01:36:50.470Z,23.60
2018-11-10T01:39:18.686Z,23.60
2018-11-10T01:41:46.875Z,23.50
2018-11-10T01:44:15.038Z,23.62
2018-11-10T01:46:43.222Z,21.93
2018-11-10T01:49:11.403Z,22.67
2018-11-10T01:51:39.595Z,22.32
2018-11-10T01:54:07.770Z,22.75
2018-11-10T01:56:36.717Z,23.45
2018-11-10T01:59:04.933Z,23.12
2018-11-10T02:01:33.128Z,24.55
2018-11-10T02:04:01.302Z,23.85
2018-11-10T02:06:29.509Z,22.75
2018-11-10T02:08:57.666Z,22.55
2018-11-10T02:11:25.833Z,23.60
2018-11-10T02:13:54.026Z,23.05
2018-11-10T02:16:22.198Z,23.45
2018-11-10T02:18:50.409Z,23.95
2018-11-10T02:21:18.803Z,24.98
2018-11-10T02:23:46.995Z,23.52
2018-11-10T02:26:15.169Z,23.98
2018-11-10T02:28:43.597Z,24.98
2018-11-10T02:31:11.789Z,24.37
2018-11-10T02:33:58.086Z,24.10
2018-11-10T02:36:26.278Z,24.40
2018-11-10T02:38:54.483Z,24.43
2018-11-10T02:41:22.689Z,24.15
2018-11-10T02:43:50.909Z,23.87
2018-11-10T02:46:19.122Z,24.07
2018-11-10T02:48:47.347Z,25.88
2018-11-10T02:51:15.561Z,22.70
2018-11-10T02:53:43.974Z,22.15
2018-11-10T02:56:12.242Z,25.02
2018-11-10T02:58:40.449Z,24.05
2018-11-10T03:01:08.663Z,24.95
2018-11-10T03:03:36.866Z,22.90
2018-11-10T03:06:05.066Z,22.25
2018-11-10T03:08:33.285Z,23.20
2018-11-10T03:11:01.490Z,21.55
2018-11-10T03:13:29.687Z,22.25
2018-11-10T03:15:58.137Z,22.45
2018-11-10T03:18:26.548Z,23.45
2018-11-10T03:20:54.776Z,20.68
2018-11-10T03:23:22.973Z,20.00
2018-11-10T03:25:51.171Z,20.45
2018-11-10T03:28:19.376Z,21.23
2018-11-10T03:30:47.847Z,20.23
2018-11-10T03:33:16.047Z,20.60
2018-11-10T03:35:44.270Z,19.98
2018-11-10T03:38:12.499Z,20.70
2018-11-10T03:40:40.707Z,19.50
2018-11-10T03:43:08.906Z,18.27
2018-11-10T03:45:37.123Z,19.02
2018-11-10T03:48:05.382Z,20.92
2018-11-10T03:50:33.606Z,18.23
2018-11-10T03:53:01.807Z,18.73
2018-11-10T03:55:30.023Z,20.02
2018-11-10T03:57:58.226Z,19.30
2018-11-10T04:00:26.658Z,19.07
2018-11-10T04:02:54.879Z,17.98
2018-11-10T04:05:23.064Z,18.80
2018-11-10T04:07:51.278Z,20.32
2018-11-10T04:10:19.462Z,16.87
2018-11-10T04:12:47.874Z,19.02
2018-11-10T04:15:16.082Z,18.73
2018-11-10T04:17:44.310Z,18.45
2018-11-10T04:20:12.508Z,18.30
2018-11-10T04:22:40.725Z,18.57
2018-11-10T04:25:10.054Z,19.55
2018-11-10T04:27:38.280Z,21.30
2018-11-10T04:30:08.134Z,19.52
2018-11-10T04:32:37.010Z,19.32
2018-11-10T04:35:05.859Z,21.48
2018-11-10T04:37:34.071Z,20.17
2018-11-10T04:40:02.369Z,19.85
2018-11-10T04:42:30.779Z,20.17
2018-11-10T04:44:59.202Z,19.67
2018-11-10T04:47:27.401Z,20.92
2018-11-10T04:49:55.696Z,19.62
2018-11-10T04:52:23.866Z,19.25
2018-11-10T04:54:52.291Z,18.95
2018-11-10T04:57:20.516Z,19.27
2018-11-10T04:59:48.706Z,21.25
2018-11-10T05:02:16.915Z,20.25
2018-11-10T05:04:45.330Z,19.40
2018-11-10T05:07:13.539Z,19.30
2018-11-10T05:09:41.981Z,19.15
2018-11-10T05:12:10.207Z,19.70
2018-11-10T05:14:38.402Z,19.05
2018-11-10T05:17:06.714Z,19.35
2018-11-10T05:19:34.907Z,18.32
2018-11-10T05:22:03.147Z,19.60
2018-11-10T05:24:31.351Z,18.35
2018-11-10T05:26:59.546Z,19.40
2018-11-10T05:29:27.999Z,18.80
2018-11-10T05:31:56.248Z,20.00
2018-11-10T05:34:24.446Z,18.40
2018-11-10T05:36:52.647Z,17.57
2018-11-10T05:39:20.852Z,19.23
2018-11-10T05:41:49.258Z,19.85
2018-11-10T05:44:17.462Z,18.50
2018-11-10T05:46:45.695Z,19.50
2018-11-10T05:49:13.902Z,16.87
2018-11-10T05:51:42.320Z,17.57
2018-11-10T05:54:10.540Z,18.48
2018-11-10T05:56:38.735Z,15.95
2018-11-10T05:59:07.456Z,16.02
2018-11-10T06:01:35.873Z,16.45
2018-11-10T06:04:04.431Z,16.73
2018-11-10T06:06:32.626Z,17.32
2018-11-10T06:09:00.889Z,16.00
2018-11-10T06:11:29.030Z,16.32
2018-11-10T06:13:57.220Z,16.05
2018-11-10T06:16:25.643Z,16.85
2018-11-10T06:18:53.968Z,16.70
2018-11-10T06:21:22.053Z,16.05
2018-11-10T06:23:50.470Z,15.80
2018-11-10T06:26:18.920Z,15.78
2018-11-10T06:28:47.176Z,16.20
2018-11-10T06:31:15.422Z,16.90
2018-11-10T06:33:43.645Z,15.80
2018-11-10T06:36:11.864Z,14.47
2018-11-10T06:38:40.112Z,15.58
2018-11-10T06:41:08.470Z,15.35
2018-11-10T06:45:58.053Z,14.73
2018-11-10T06:51:16.891Z,15.23
2018-11-10T06:53:45.481Z,15.25
2018-11-10T06:56:13.761Z,14.78
2018-11-10T06:58:42.159Z,14.93
2018-11-10T07:01:10.416Z,14.98
2018-11-10T07:03:39.198Z,16.17
2018-11-10T07:06:07.655Z,17.75
2018-11-10T07:08:36.645Z,16.10
2018-11-10T07:11:05.262Z,17.05
2018-11-10T07:13:33.719Z,15.95
2018-11-10T07:16:02.318Z,15.90
2018-11-10T07:18:30.835Z,15.40
2018-11-10T07:20:59.224Z,14.87
2018-11-10T07:23:27.718Z,15.48
2018-11-10T07:25:56.080Z,14.85
2018-11-10T07:28:36.959Z,14.93
2018-11-10T07:31:10.859Z,15.60
2018-11-10T07:33:39.723Z,14.90
2018-11-10T07:36:15.307Z,16.17
2018-11-10T07:38:44.035Z,14.50
2018-11-10T07:41:12.748Z,15.20
2018-11-10T07:43:41.382Z,16.77
2018-11-10T07:46:11.777Z,15.08
2018-11-10T07:48:44.956Z,15.20
2018-11-10T07:51:14.750Z,15.60
2018-11-10T07:53:54.555Z,21.42
2018-11-10T07:56:23.758Z,15.50
2018-11-10T07:58:52.393Z,18.27
2018-11-10T08:01:21.189Z,16.27
2018-11-10T08:04:02.506Z,15.28
2018-11-10T08:06:31.601Z,16.00
2018-11-10T08:08:59.941Z,16.65
2018-11-10T08:11:28.505Z,17.00
2018-11-10T08:13:56.878Z,17.02
2018-11-10T08:16:25.653Z,16.30
2018-11-10T08:18:54.069Z,16.67
2018-11-10T08:21:22.924Z,17.05
2018-11-10T08:23:51.751Z,16.95
2018-11-10T08:26:20.484Z,15.68
2018-11-10T08:28:49.194Z,17.30
2018-11-10T08:31:17.820Z,16.32
2018-11-10T08:33:46.178Z,14.80
2018-11-10T08:36:14.414Z,17.98
2018-11-10T08:38:42.932Z,15.72
2018-11-10T08:41:11.447Z,16.35
2018-11-10T08:43:40.348Z,16.03
2018-11-10T08:46:08.914Z,14.55
2018-11-10T08:48:38.348Z,14.73
2018-11-10T08:51:07.093Z,15.10
2018-11-10T08:53:36.120Z,14.85
2018-11-10T08:56:04.923Z,15.30
2018-11-10T08:58:33.357Z,14.57
2018-11-10T09:01:01.682Z,13.83
2018-11-10T09:03:30.629Z,13.80
2018-11-10T09:05:59.078Z,15.00
2018-11-10T09:08:27.453Z,15.60
2018-11-10T09:10:56.147Z,15.48
2018-11-10T09:13:24.590Z,15.53
2018-11-10T09:15:53.126Z,14.78
2018-11-10T09:18:21.495Z,14.97
2018-11-10T09:20:50.355Z,14.43
2018-11-10T09:23:18.802Z,14.30
2018-11-10T09:25:47.227Z,15.67
2018-11-10T09:28:15.620Z,15.93
2018-11-10T09:30:44.113Z,14.15
2018-11-10T09:33:12.590Z,13.40
2018-11-10T09:35:41.199Z,12.67
2018-11-10T09:38:09.628Z,14.87
2018-11-10T09:40:38.047Z,13.07
2018-11-10T09:43:06.499Z,14.20
2018-11-10T09:45:34.943Z,13.80
2018-11-10T09:48:03.252Z,15.57
2018-11-10T09:50:31.610Z,12.93
2018-11-10T09:53:00.031Z,13.27
2018-11-10T09:55:28.478Z,12.43
2018-11-10T09:57:56.906Z,11.07
2018-11-10T10:00:25.414Z,11.50
2018-11-10T10:02:53.743Z,10.00
2018-11-10T10:05:22.099Z,9.90
2018-11-10T10:07:50.607Z,9.50
2018-11-10T10:10:19.312Z,9.93
2018-11-10T10:12:47.703Z,8.83
2018-11-10T10:15:17.427Z,9.80
2018-11-10T10:17:48.468Z,9.63
2018-11-10T10:20:17.970Z,10.10
2018-11-10T10:22:47.572Z,8.70
2018-11-10T10:25:17.329Z,8.40
2018-11-10T10:27:46.545Z,8.10
2018-11-10T10:30:17.043Z,7.50
2018-11-10T10:32:46.579Z,8.00
2018-11-10T10:35:15.365Z,7.77
2018-11-10T10:37:44.540Z,7.20
2018-11-10T10:40:13.874Z,7.00
2018-11-10T10:42:42.509Z,8.43
2018-11-10T10:45:13.190Z,7.30
2018-11-10T10:47:41.835Z,7.50
2018-11-10T10:50:11.879Z,7.47
2018-11-10T10:52:40.230Z,7.30
2018-11-10T10:55:09.247Z,7.17
2018-11-10T10:57:37.543Z,7.50
2018-11-10T11:00:10.091Z,6.87
2018-11-10T11:02:44.072Z,7.50
2018-11-10T11:05:16.866Z,8.23
2018-11-10T11:07:45.090Z,7.60
2018-11-10T11:10:13.331Z,8.27
2018-11-10T11:12:41.765Z,8.07
2018-11-10T11:15:10.131Z,7.83
2018-11-10T11:17:38.356Z,7.37
2018-11-10T11:20:06.797Z,8.00
2018-11-10T11:22:35.300Z,7.70
2018-11-10T11:25:04.248Z,7.90
2018-11-10T11:27:32.623Z,7.03
2018-11-10T11:30:01.089Z,6.87
2018-11-10T11:32:29.352Z,7.30
2018-11-10T11:34:57.650Z,7.70
2018-11-10T11:37:27.128Z,7.37
2018-11-10T11:39:55.685Z,7.07
2018-11-10T11:42:24.067Z,6.87
2018-11-10T11:44:52.284Z,6.70
2018-11-10T11:47:21.242Z,7.30
2018-11-10T11:49:49.690Z,6.67
2018-11-10T11:52:18.435Z,6.63
2018-11-10T11:54:48.115Z,7.03
2018-11-10T11:57:17.038Z,6.20
2018-11-10T11:59:45.305Z,5.27
2018-11-10T12:02:13.852Z,5.83
2018-11-10T12:04:42.295Z,5.80
2018-11-10T12:07:11.474Z,5.00
2018-11-10T12:09:40.023Z,4.67
2018-11-10T12:12:08.344Z,4.20
2018-11-10T12:14:37.000Z,4.47
2018-11-10T12:17:05.471Z,4.77
2018-11-10T12:19:34.306Z,4.03
2018-11-10T12:22:02.791Z,4.23
2018-11-10T12:24:32.777Z,3.93
2018-11-10T12:27:01.298Z,3.80
2018-11-10T12:29:30.570Z,3.63
2018-11-10T12:31:59.334Z,3.53
2018-11-10T12:34:28.018Z,4.07
2018-11-10T12:36:56.543Z,3.90
2018-11-10T12:39:25.685Z,3.43
2018-11-10T12:41:54.878Z,3.47
2018-11-10T12:44:23.154Z,3.57
2018-11-10T12:46:51.424Z,3.00
2018-11-10T12:49:20.188Z,3.27
2018-11-10T12:51:48.650Z,2.80
2018-11-10T12:54:17.412Z,2.70
2018-11-10T12:56:45.640Z,2.90
2018-11-10T12:59:14.422Z,3.10
2018-11-10T13:01:42.655Z,3.83
2018-11-10T13:04:10.906Z,3.03
2018-11-10T13:06:39.106Z,3.30
2018-11-10T13:09:08.687Z,2.80
2018-11-10T13:11:37.346Z,2.97
2018-11-10T13:14:06.655Z,2.90
2018-11-10T13:16:35.005Z,2.80
2018-11-10T13:19:03.689Z,2.80
2018-11-10T13:21:31.965Z,2.57
2018-11-10T13:24:00.197Z,2.83
2018-11-10T13:26:28.442Z,2.80
2018-11-10T13:28:57.075Z,3.20
2018-11-10T13:31:25.549Z,2.40
2018-11-10T13:33:53.592Z,2.80
2018-11-10T13:36:21.777Z,2.67
2018-11-10T13:38:50.046Z,2.90
2018-11-10T13:41:18.286Z,2.47
2018-11-10T13:43:46.557Z,2.87
2018-11-10T13:46:14.753Z,2.43
2018-11-10T13:48:42.959Z,3.07
2018-11-10T13:51:11.674Z,3.13
2018-11-10T13:53:39.658Z,3.03
2018-11-10T13:56:07.883Z,2.70
2018-11-10T13:58:36.107Z,3.20
2018-11-10T14:01:04.736Z,3.63
2018-11-10T14:03:32.982Z,2.80
2018-11-10T14:06:01.218Z,2.70
2018-11-10T14:08:29.442Z,2.70
2018-11-10T14:10:57.774Z,2.80
2018-11-10T14:13:26.198Z,2.80
2018-11-10T14:15:54.471Z,2.63
2018-11-10T14:18:22.687Z,2.50
2018-11-10T14:20:50.923Z,2.87
2018-11-10T14:23:19.122Z,2.90
2018-11-10T14:25:47.918Z,2.80
2018-11-10T14:28:16.168Z,3.30
2018-11-10T14:30:44.397Z,6.47
2018-11-10T14:33:12.628Z,11.00
2018-11-10T14:35:40.862Z,9.77
2018-11-10T14:38:09.110Z,11.43
2018-11-10T14:40:37.352Z,11.20
2018-11-10T14:43:05.719Z,10.63
2018-11-10T14:45:33.985Z,10.77
2018-11-10T14:50:52.786Z,10.43
2018-11-10T14:53:21.023Z,9.97
2018-11-10T14:55:49.446Z,10.60
2018-11-10T14:58:17.653Z,10.10
2018-11-10T15:00:45.869Z,10.70
2018-11-10T15:03:14.272Z,11.67
2018-11-10T15:05:42.544Z,11.97
2018-11-10T15:08:10.727Z,11.40
2018-11-10T15:10:39.102Z,12.97
2018-11-10T15:13:07.379Z,10.67
2018-11-10T15:15:35.613Z,12.23
2018-11-10T15:18:03.885Z,11.50
2018-11-10T15:20:32.195Z,11.30
2018-11-10T15:23:00.421Z,12.07
2018-11-10T15:25:28.891Z,11.47
2018-11-10T15:27:57.307Z,10.77
2018-11-10T15:30:25.753Z,11.83
2018-11-10T15:32:53.971Z,11.23
2018-11-10T15:35:23.194Z,11.23
2018-11-10T15:37:52.423Z,11.23
2018-11-10T15:40:21.239Z,10.30
2018-11-10T15:42:49.416Z,9.87
2018-11-10T15:45:19.036Z,10.93
2018-11-10T15:47:47.456Z,10.87
2018-11-10T15:50:16.755Z,10.20
2018-11-10T15:52:45.214Z,10.00
2018-11-10T15:55:13.921Z,9.60
2018-11-10T15:57:42.688Z,9.80
2018-11-10T16:00:13.869Z,9.63
2018-11-10T16:02:42.890Z,9.70
2018-11-10T16:05:11.817Z,12.10
2018-11-10T16:07:44.754Z,13.10
2018-11-10T16:10:13.711Z,14.23
2018-11-10T16:12:42.286Z,13.60
2018-11-10T16:15:12.299Z,14.20
2018-11-10T16:17:41.400Z,12.83
2018-11-10T16:20:12.246Z,14.80
2018-11-10T16:22:40.473Z,14.53
2018-11-10T16:25:12.288Z,12.30
2018-11-10T16:30:35.131Z,12.60
2018-11-10T16:33:03.571Z,12.50
2018-11-10T16:38:25.025Z,11.53
2018-11-10T16:40:54.413Z,10.97
2018-11-10T16:43:22.653Z,11.00
2018-11-10T16:45:50.959Z,10.70
2018-11-10T16:48:19.617Z,9.87
2018-11-10T16:50:48.338Z,10.07
2018-11-10T16:53:16.824Z,10.87
2018-11-10T16:55:45.192Z,10.73
2018-11-10T16:58:13.538Z,10.13
2018-11-10T17:00:42.247Z,9.97
2018-11-10T17:03:10.472Z,9.97
2018-11-10T17:05:38.757Z,10.80
2018-11-10T17:08:07.018Z,10.50
2018-11-10T17:10:35.840Z,10.40
2018-11-10T17:13:04.343Z,12.97
2018-11-10T17:15:32.627Z,11.27
2018-11-10T17:18:00.814Z,11.97
2018-11-10T17:20:29.006Z,12.03
2018-11-10T17:22:57.217Z,12.43
2018-11-10T17:25:25.781Z,12.10
2018-11-10T17:27:54.020Z,11.00
2018-11-10T17:30:22.400Z,10.90
2018-11-10T17:32:50.757Z,11.63
2018-11-10T17:35:19.439Z,11.60
2018-11-10T17:37:47.730Z,12.00
2018-11-10T17:40:16.500Z,12.97
2018-11-10T17:42:45.102Z,12.07
2018-11-10T17:45:15.247Z,11.50
2018-11-10T17:47:44.217Z,14.50
2018-11-10T17:50:13.974Z,13.57
2018-11-10T17:52:42.452Z,13.23
2018-11-10T17:55:12.359Z,12.87
2018-11-10T17:57:41.743Z,13.20
2018-11-10T18:00:10.307Z,12.07
2018-11-10T18:02:38.959Z,13.70
2018-11-10T18:05:08.598Z,12.40
2018-11-10T18:07:37.006Z,13.60
2018-11-10T18:10:06.691Z,13.70
2018-11-10T18:12:35.192Z,13.67
2018-11-10T18:15:03.745Z,13.10
2018-11-10T18:17:32.465Z,13.30
2018-11-10T18:20:00.966Z,13.40
2018-11-10T18:22:29.491Z,14.90
2018-11-10T18:24:58.059Z,14.83
2018-11-10T18:27:26.670Z,14.20
2018-11-10T18:29:55.285Z,14.47
2018-11-10T18:32:23.867Z,14.67
2018-11-10T18:34:52.934Z,13.80
2018-11-10T18:37:21.786Z,12.60
2018-11-10T18:39:50.471Z,13.10
2018-11-10T18:42:19.130Z,14.23
2018-11-10T18:44:47.558Z,13.50
2018-11-10T18:47:16.157Z,13.20
2018-11-10T18:49:44.635Z,12.80
2018-11-10T18:52:13.627Z,12.47
2018-11-10T18:54:42.039Z,13.03
2018-11-10T18:57:10.720Z,12.10
2018-11-10T18:59:39.320Z,12.63
2018-11-10T19:02:07.845Z,12.50
2018-11-10T19:04:36.345Z,16.07
2018-11-10T19:07:05.272Z,14.03
2018-11-10T19:09:33.718Z,12.23
2018-11-10T19:12:02.307Z,12.63
2018-11-10T19:14:30.862Z,12.73
2018-11-10T19:16:59.548Z,12.30
2018-11-10T19:19:28.474Z,13.80
2018-11-10T19:21:57.192Z,14.83
2018-11-10T19:24:25.709Z,13.67
2018-11-10T19:26:54.067Z,14.80
2018-11-10T19:29:22.967Z,14.00
2018-11-10T19:31:51.559Z,15.00
2018-11-10T19:34:21.150Z,14.63
2018-11-10T19:36:49.794Z,12.77
2018-11-10T19:39:18.546Z,14.27
2018-11-10T19:41:47.046Z,14.87
2018-11-10T19:44:15.591Z,13.77
2018-11-10T19:46:43.949Z,12.93
2018-11-10T19:49:12.614Z,12.47
2018-11-10T19:51:41.487Z,14.60
2018-11-10T19:54:10.120Z,14.67
2018-11-10T19:56:38.669Z,14.50
2018-11-10T19:59:07.399Z,13.80
2018-11-10T20:01:35.986Z,13.80
2018-11-10T20:04:04.605Z,13.50
2018-11-10T20:06:33.066Z,12.00
2018-11-10T20:09:01.662Z,13.90
2018-11-10T20:11:30.286Z,14.00
2018-11-10T20:13:59.055Z,12.90
2018-11-10T20:16:27.766Z,12.17
2018-11-10T20:18:56.352Z,11.63
2018-11-10T20:21:24.979Z,11.27
2018-11-10T20:23:53.406Z,12.00
2018-11-10T20:26:22.031Z,12.93
2018-11-10T20:28:50.629Z,12.47
2018-11-10T20:31:19.390Z,12.90
2018-11-10T20:33:48.055Z,12.43
2018-11-10T20:36:16.697Z,12.17
2018-11-10T20:38:45.319Z,12.60
2018-11-10T20:41:13.741Z,12.30
2018-11-10T20:43:42.316Z,13.37
2018-11-10T20:46:11.027Z,12.60
2018-11-10T20:48:39.663Z,12.43
2018-11-10T20:51:08.274Z,11.33
2018-11-10T20:53:36.871Z,13.10
2018-11-10T20:56:05.904Z,12.60
2018-11-10T20:58:34.393Z,11.10
2018-11-10T21:01:02.724Z,12.20
2018-11-10T21:03:32.101Z,10.80
2018-11-10T21:06:01.215Z,11.50
2018-11-10T21:08:30.080Z,11.47
2018-11-10T21:10:59.028Z,11.47
2018-11-10T21:13:27.616Z,12.07
2018-11-10T21:15:56.731Z,11.70
2018-11-10T21:18:25.600Z,10.90
2018-11-10T21:20:54.208Z,11.00
2018-11-10T21:23:23.113Z,10.57
2018-11-10T21:25:51.507Z,11.60
2018-11-10T21:28:20.030Z,10.40
2018-11-10T21:30:48.794Z,10.57
2018-11-10T21:33:17.158Z,10.00
2018-11-10T21:35:45.754Z,11.17
2018-11-10T21:38:14.619Z,11.48
2018-11-10T21:40:43.183Z,11.38
2018-11-10T21:43:11.494Z,10.37
2018-11-10T21:45:39.765Z,11.93
2018-11-10T21:48:08.185Z,10.53
2018-11-10T21:50:37.216Z,10.53
2018-11-10T21:53:05.796Z,11.00
2018-11-10T21:55:34.258Z,9.47
2018-11-10T21:58:02.859Z,10.20
2018-11-10T22:00:31.296Z,10.80
2018-11-10T22:03:00.244Z,10.10
2018-11-10T22:05:28.712Z,13.60
2018-11-10T22:07:59.111Z,12.20
2018-11-10T22:10:28.679Z,12.45
2018-11-10T22:12:57.185Z,11.53
2018-11-10T22:15:25.631Z,10.97
2018-11-10T22:17:53.980Z,10.60
2018-11-10T22:20:23.779Z,11.67
2018-11-10T22:22:52.174Z,12.80
2018-11-10T22:25:20.983Z,11.77
2018-11-10T22:27:50.962Z,12.97
2018-11-10T22:30:20.354Z,13.20
2018-11-10T22:32:49.442Z,12.63
2018-11-10T22:35:17.845Z,13.43
2018-11-10T22:37:46.167Z,14.00
2018-11-10T22:40:16.662Z,12.87
2018-11-10T22:42:45.308Z,13.23
2018-11-10T22:45:15.073Z,13.50
2018-11-10T22:47:43.640Z,13.40
2018-11-10T22:50:15.058Z,13.73
2018-11-10T22:52:43.687Z,12.17
2018-11-10T22:55:12.199Z,14.10
2018-11-10T22:57:40.849Z,13.98
2018-11-10T23:00:16.524Z,13.00
2018-11-10T23:02:47.098Z,13.60
2018-11-10T23:05:16.096Z,13.83
2018-11-10T23:07:44.447Z,14.83
2018-11-10T23:10:13.268Z,13.18
2018-11-10T23:12:41.859Z,13.50
2018-11-10T23:15:10.270Z,15.15
2018-11-10T23:17:38.779Z,14.40
2018-11-10T23:20:08.455Z,13.93
2018-11-10T23:22:37.215Z,13.13
2018-11-10T23:25:06.696Z,13.00
2018-11-10T23:27:35.181Z,14.27
2018-11-10T23:30:03.739Z,13.37
2018-11-10T23:32:32.858Z,13.83
2018-11-10T23:35:01.452Z,13.20
2018-11-10T23:37:29.792Z,12.80
2018-11-10T23:39:58.104Z,12.37
2018-11-10T23:42:26.407Z,12.63
2018-11-10T23:44:54.799Z,13.50
2018-11-10T23:47:23.170Z,14.63
2018-11-10T23:49:51.963Z,12.40
2018-11-10T23:52:20.278Z,12.27
2018-11-10T23:54:48.720Z,12.17
2018-11-10T23:57:17.117Z,12.13
2018-11-10T23:59:45.594Z,12.00
